Time;durP1;ratioP1;P1;durP2;ratioP2;P2;SDS_P1;SDS_P2;PMS_P1;PMS_P2;Temp;Humidity;BMP_temperature;BMP_pressure;BME280_temperature;BME280_humidity;BME280_pressure;Samples;Min_cycle;Max_cycle;Signal;HPM_P1;HPM_P2
2022/06/28 00:01:58;;;;;;;11.18;5.80;;;;;;;25.05;47.96;100659.62;1792186;79;21008;-80
2022/06/28 00:04:27;;;;;;;6.58;6.00;;;;;;;25.03;48.04;100654.45;1772201;79;21024;-80
2022/06/28 00:06:54;;;;;;;6.37;5.87;;;;;;;25.00;48.11;100654.67;1798214;79;20949;-80
2022/06/28 00:09:20;;;;;;;8.20;5.67;;;;;;;24.99;48.18;100656.11;1787788;79;21043;-81
2022/06/28 00:11:47;;;;;;;8.98;6.12;;;;;;;24.97;48.23;100664.17;1774788;80;21511;-81
2022/06/28 00:17:00;;;;;;;10.68;5.62;;;;;;;24.92;48.36;100650.92;1749554;80;21044;-82
2022/06/28 00:19:26;;;;;;;6.65;5.92;;;;;;;24.87;48.49;100650.42;1749543;81;21016;-81
2022/06/28 00:21:52;;;;;;;10.03;5.80;;;;;;;24.84;48.56;100649.33;1741938;80;20981;-81
2022/06/28 00:24:19;;;;;;;8.13;6.03;;;;;;;24.78;48.66;100649.31;1756302;80;21274;-81
2022/06/28 00:26:46;;;;;;;10.93;6.03;;;;;;;24.75;48.77;100635.83;1782383;80;21072;-81
2022/06/28 00:29:11;;;;;;;;;;;;;;;24.75;48.85;100637.63;1781471;80;21415;-81
2022/06/28 00:31:37;;;;;;;7.45;5.45;;;;;;;24.74;49.18;100638.59;1761116;80;20185;-81
2022/06/28 00:34:07;;;;;;;7.95;5.87;;;;;;;24.72;48.88;100637.86;1750926;81;21039;-81
2022/06/28 00:36:33;;;;;;;6.25;5.55;;;;;;;24.72;48.97;100640.51;1755000;80;21120;-81
2022/06/28 00:39:00;;;;;;;6.77;6.17;;;;;;;24.69;49.06;100638.93;1765730;80;21071;-81
2022/06/28 00:41:27;;;;;;;8.78;5.42;;;;;;;24.68;49.15;100652.27;1775007;80;21786;-81
2022/06/28 00:43:54;;;;;;;6.60;5.97;;;;;;;24.66;49.22;100652.86;1781389;80;20873;-81
2022/06/28 00:46:21;;;;;;;5.80;5.20;;;;;;;24.64;49.32;100660.06;1752178;80;21446;-80
2022/06/28 00:48:47;;;;;;;;;;;;;;;24.62;49.40;100658.01;1788876;79;20961;-81
2022/06/28 00:51:19;;;;;;;6.50;5.78;;;;;;;24.60;49.60;100651.98;1785253;79;20090;-81
2022/06/28 00:53:46;;;;;;;11.03;6.65;;;;;;;24.59;49.45;100655.11;1790631;80;21378;-81
2022/06/28 00:56:12;;;;;;;7.00;5.65;;;;;;;24.55;49.58;100662.06;1779615;79;21021;-81
2022/06/28 00:58:38;;;;;;;6.70;6.10;;;;;;;24.55;49.69;100656.77;1797464;79;21084;-81
2022/06/28 01:01:04;;;;;;;6.10;5.65;;;;;;;24.55;49.74;100662.06;1760924;80;21097;-81
2022/06/28 01:03:30;;;;;;;7.22;6.10;;;;;;;24.53;49.83;100659.53;1777695;79;21035;-81
2022/06/28 01:05:56;;;;;;;6.33;5.70;;;;;;;24.54;49.90;100664.34;1763326;80;21004;-81
2022/06/28 01:08:22;;;;;;;9.47;6.73;;;;;;;24.57;49.96;100665.44;1752969;81;21101;-81
2022/06/28 01:10:48;;;;;;;12.58;6.45;;;;;;;24.58;50.03;100666.64;1749211;80;21030;-81
2022/06/28 01:13:17;;;;;;;8.50;6.80;;;;;;;24.58;50.07;100665.80;1743892;80;21093;-81
2022/06/28 01:15:44;;;;;;;7.47;6.27;;;;;;;24.55;50.15;100666.87;1736546;80;22602;-81
2022/06/28 01:18:12;;;;;;;12.90;6.37;;;;;;;24.54;50.20;100668.30;1773911;78;21072;-81
2022/06/28 01:20:44;;;;;;;9.85;6.20;;;;;;;24.53;50.27;100662.17;1750149;80;21266;-81
2022/06/28 01:23:10;;;;;;;7.15;6.05;;;;;;;24.54;50.35;100665.66;1753867;80;20875;-81
2022/06/28 01:25:37;;;;;;;12.03;5.97;;;;;;;24.54;50.44;100667.83;1756582;78;21034;-81
2022/06/28 01:28:05;;;;;;;6.70;6.10;;;;;;;24.53;50.46;100685.97;1773301;80;21104;-81
2022/06/28 01:30:32;;;;;;;6.75;5.80;;;;;;;24.52;50.54;100692.69;1748380;80;21069;-81
2022/06/28 01:32:58;;;;;;;9.38;5.90;;;;;;;24.52;50.61;100686.92;1741800;79;21125;-81
2022/06/28 01:35:24;;;;;;;6.62;5.97;;;;;;;24.48;50.65;100686.78;1746745;78;21101;-81
2022/06/28 01:37:50;;;;;;;6.17;5.67;;;;;;;24.49;50.73;100681.02;1777636;79;21045;-81
2022/06/28 01:40:16;;;;;;;9.33;6.13;;;;;;;24.49;50.76;100678.38;1742618;81;22292;-81
2022/06/28 01:42:42;;;;;;;7.55;6.28;;;;;;;24.46;50.80;100682.08;1751486;81;20982;-81
2022/06/28 01:45:10;;;;;;;6.83;6.22;;;;;;;24.43;50.88;100686.30;1765086;80;21016;-81
2022/06/28 01:47:37;;;;;;;6.17;5.58;;;;;;;24.43;50.94;100680.17;1775122;79;21316;-81
2022/06/28 01:50:05;;;;;;;8.93;5.62;;;;;;;24.42;51.02;100692.55;1791769;79;20921;-81
2022/06/28 01:52:31;;;;;;;7.60;6.10;;;;;;;24.41;51.10;100689.53;1751482;80;21315;-81
2022/06/28 01:54:58;;;;;;;7.67;6.15;;;;;;;24.42;51.17;100696.51;1742680;79;24723;-81
2022/06/28 01:57:33;;;;;;;6.75;6.15;;;;;;;24.39;51.21;100693.61;1738884;78;432090;-81
2022/06/28 01:59:59;;;;;;;6.53;5.93;;;;;;;24.36;51.29;100697.80;1631934;86;21147;-81
2022/06/28 02:02:25;;;;;;;7.22;6.53;;;;;;;24.35;51.34;100693.46;1644556;86;21382;-81
2022/06/28 02:04:54;;;;;;;7.87;6.08;;;;;;;24.38;51.39;100693.72;1649242;85;21122;-81
2022/06/28 02:07:20;;;;;;;6.85;6.20;;;;;;;24.39;51.45;100684.83;1641589;87;21093;-82
2022/06/28 02:09:46;;;;;;;6.30;5.80;;;;;;;24.36;51.45;100695.15;1642311;86;21149;-82
2022/06/28 02:12:12;;;;;;;6.87;6.27;;;;;;;24.31;51.53;100693.80;1615854;87;20909;-82
2022/06/28 02:14:37;;;;;;;13.10;5.87;;;;;;;24.29;51.66;100701.83;1629329;87;21063;-82
2022/06/28 02:17:04;;;;;;;6.80;5.80;;;;;;;24.28;51.71;100704.11;1637949;85;21141;-82
2022/06/28 02:19:30;;;;;;;6.92;6.33;;;;;;;24.28;51.76;100709.87;1632593;85;21118;-82
2022/06/28 02:21:56;;;;;;;8.17;6.43;;;;;;;24.26;51.81;100711.30;1640440;86;21080;-82
2022/06/28 02:24:22;;;;;;;7.27;6.53;;;;;;;24.28;51.90;100723.92;1642470;87;20930;-81
2022/06/28 02:26:48;;;;;;;6.97;6.37;;;;;;;24.26;51.94;100721.87;1616963;87;20893;-81
2022/06/28 02:29:14;;;;;;;10.30;5.70;;;;;;;24.29;51.99;100721.66;1652329;85;20998;-81
2022/06/28 02:31:40;;;;;;;7.97;6.30;;;;;;;24.30;52.01;100727.30;1643256;87;20906;-81
2022/06/28 02:34:06;;;;;;;7.40;6.13;;;;;;;24.30;52.04;100735.23;1644072;86;21043;-81
2022/06/28 02:41:53;;;;;;;7.62;6.60;;;;;;;24.22;52.25;100734.91;1635830;85;21065;-82
2022/06/28 02:44:19;;;;;;;7.13;6.53;;;;;;;24.19;52.33;100741.72;1658905;85;21131;-82
2022/06/28 02:46:48;;;;;;;7.35;6.65;;;;;;;24.20;52.39;100760.59;1642148;87;21071;-81
2022/06/28 02:49:15;;;;;;;9.70;7.27;;;;;;;24.18;52.48;100765.61;1651135;84;21037;-81
2022/06/28 02:51:42;;;;;;;8.50;7.15;;;;;;;24.14;52.59;100752.25;1605703;88;21113;-81
2022/06/28 02:54:08;;;;;;;7.28;6.60;;;;;;;24.15;52.63;100759.22;1639848;85;22276;-81
2022/06/28 02:56:35;;;;;;;9.10;6.67;;;;;;;24.14;52.72;100775.55;1657902;85;21006;-81
2022/06/28 02:59:01;;;;;;;7.67;6.87;;;;;;;24.15;52.76;100782.52;1650084;85;21086;-82
2022/06/28 03:01:27;;;;;;;10.60;7.58;;;;;;;24.17;52.78;100800.44;1641272;84;21118;-81
2022/06/28 03:03:53;;;;;;;9.33;7.10;;;;;;;24.17;52.83;100807.05;1650769;86;21624;-81
2022/06/28 03:06:19;;;;;;;11.07;6.70;;;;;;;24.15;52.96;100806.78;1647806;86;21057;-81
2022/06/28 03:08:46;;;;;;;7.90;6.23;;;;;;;24.12;53.04;100803.03;1652059;85;20914;-82
2022/06/28 03:11:12;;;;;;;9.78;7.25;;;;;;;24.10;53.14;100803.14;1649013;85;21073;-82
2022/06/28 03:13:38;;;;;;;10.10;7.22;;;;;;;24.10;53.22;100800.50;1637082;85;21518;-82
2022/06/28 03:16:04;;;;;;;8.23;7.50;;;;;;;24.13;53.51;100814.81;1650578;86;20911;-82
2022/06/28 03:18:30;;;;;;;9.07;8.27;;;;;;;24.10;53.53;100828.23;1652967;85;21542;-82
2022/06/28 03:20:56;;;;;;;9.60;8.23;;;;;;;24.04;53.74;100826.86;1649299;86;21116;-82
2022/06/28 03:23:22;;;;;;;12.33;9.37;;;;;;;24.01;53.79;100827.08;1648976;86;20907;-81
2022/06/28 03:25:51;;;;;;;11.53;10.48;;;;;;;23.99;54.08;100832.94;1654319;85;21101;-81
2022/06/28 03:28:17;;;;;;;14.55;9.88;;;;;;;23.93;54.22;100831.19;1656033;85;21453;-81
2022/06/28 03:30:43;;;;;;;12.77;9.73;;;;;;;23.89;54.55;100834.55;1650552;85;21078;-82
2022/06/28 03:33:10;;;;;;;12.90;10.30;;;;;;;23.91;54.54;100846.33;1649949;85;21082;-82
2022/06/28 03:35:35;;;;;;;11.00;10.03;;;;;;;23.88;55.12;100844.73;1671057;85;21418;-82
2022/06/28 03:38:01;;;;;;;13.47;10.70;;;;;;;23.81;55.08;100845.25;1656808;85;21830;-82
2022/06/28 03:40:27;;;;;;;11.43;10.43;;;;;;;23.78;55.25;100849.42;1655016;85;20990;-82
2022/06/28 03:42:53;;;;;;;11.37;10.07;;;;;;;23.79;55.43;100862.52;1638658;85;21200;-82
2022/06/28 03:45:19;;;;;;;15.03;10.30;;;;;;;23.78;55.76;100862.16;1654716;85;21114;-81
2022/06/28 03:47:45;;;;;;;12.33;9.73;;;;;;;23.76;55.76;100866.22;1648812;85;20915;-82
2022/06/28 03:50:15;;;;;;;10.63;9.53;;;;;;;23.79;56.32;100869.59;1637464;86;21102;-82
2022/06/28 03:52:41;;;;;;;14.03;10.40;;;;;;;23.79;56.16;100869.59;1648801;86;20926;-82
2022/06/28 03:55:09;;;;;;;12.53;9.60;;;;;;;23.84;56.05;100883.34;1651782;85;21068;-82
2022/06/28 03:57:35;;;;;;;10.98;9.88;;;;;;;23.83;56.60;100881.66;1650878;85;20967;-82
2022/06/28 04:00:01;;;;;;;12.70;9.43;;;;;;;23.81;56.89;100884.39;1663720;84;21731;-82
2022/06/28 04:02:27;;;;;;;12.40;9.60;;;;;;;23.79;56.90;100890.25;1670611;84;21052;-81
2022/06/28 04:04:53;;;;;;;13.27;9.53;;;;;;;23.76;56.81;100889.98;1666679;84;21108;-81
2022/06/28 04:07:19;;;;;;;12.97;10.17;;;;;;;23.79;56.98;100899.97;1665982;85;21057;-81
2022/06/28 04:09:45;;;;;;;11.83;10.10;;;;;;;23.77;57.04;100896.11;1665012;85;21085;-81
2022/06/28 04:12:11;;;;;;;12.63;10.63;;;;;;;23.79;57.77;100908.73;1665686;84;21008;-81
2022/06/28 04:14:37;;;;;;;17.98;15.38;;;;;;;23.77;57.14;100913.28;1668415;84;21340;-81
2022/06/28 04:17:04;;;;;;;23.13;16.20;;;;;;;23.76;57.69;100915.55;1665855;85;21072;-82
2022/06/28 04:19:30;;;;;;;21.20;16.42;;;;;;;23.67;57.81;100923.59;1657377;84;21125;-80
2022/06/28 04:21:56;;;;;;;20.68;17.40;;;;;;;23.61;58.28;100929.28;1632016;86;21000;-80
2022/06/28 04:24:22;;;;;;;20.03;17.73;;;;;;;23.55;57.84;100931.00;1666198;85;20898;-80
2022/06/28 04:26:57;;;;;;;26.77;18.42;;;;;;;23.50;58.04;100927.77;1664738;84;21061;-80
2022/06/28 04:29:23;;;;;;;20.80;18.35;;;;;;;23.45;58.20;100935.98;1665702;84;22213;-80
2022/06/28 04:31:49;;;;;;;20.43;18.23;;;;;;;23.40;58.35;100930.16;1674096;84;20997;-81
2022/06/28 04:34:17;;;;;;;20.70;17.62;;;;;;;23.34;58.38;100929.73;1665374;85;21083;-81
2022/06/28 04:36:43;;;;;;;19.00;17.00;;;;;;;23.32;59.03;100928.52;1669466;84;21038;-81
2022/06/28 04:39:09;;;;;;;19.60;17.52;;;;;;;23.30;59.14;100926.45;1669619;84;21032;-82
2022/06/28 04:41:35;;;;;;;24.47;17.57;;;;;;;23.24;59.22;100933.44;1666253;84;21035;-81
2022/06/28 04:44:01;;;;;;;18.00;16.20;;;;;;;23.21;58.91;100927.03;1663030;84;21080;-81
2022/06/28 04:46:30;;;;;;;18.77;16.37;;;;;;;23.25;58.77;100917.98;1665576;84;21642;-80
2022/06/28 04:48:56;;;;;;;28.33;17.27;;;;;;;23.27;58.97;100926.64;1665562;84;20988;-81
2022/06/28 04:51:22;;;;;;;19.17;17.00;;;;;;;23.27;58.86;100922.68;1665815;84;21052;-81
2022/06/28 04:53:48;;;;;;;21.93;16.40;;;;;;;23.29;59.00;100925.23;1667483;84;20929;-81
2022/06/28 04:56:15;;;;;;;24.47;16.75;;;;;;;23.23;58.97;100927.78;1662581;84;20965;-81
2022/06/28 04:58:41;;;;;;;19.35;16.90;;;;;;;23.16;59.24;100934.39;1669285;84;21053;-80
2022/06/28 05:01:07;;;;;;;20.25;16.55;;;;;;;23.13;59.15;100951.73;1648158;85;21671;-80
2022/06/28 05:03:35;;;;;;;19.12;15.48;;;;;;;23.13;59.74;100941.65;1658558;84;21084;-81
2022/06/28 05:06:01;;;;;;;21.05;16.40;;;;;;;23.12;59.18;100936.84;1655246;85;28335;-81
2022/06/28 05:08:27;;;;;;;19.47;15.87;;;;;;;23.16;59.17;100924.31;1658299;85;21140;-81
2022/06/28 05:10:53;;;;;;;19.23;15.80;;;;;;;23.24;59.22;100925.98;1652432;84;20986;-81
2022/06/28 05:13:19;;;;;;;22.33;16.23;;;;;;;23.29;59.13;100931.82;1657346;85;20903;-81
2022/06/28 05:15:45;;;;;;;18.57;16.15;;;;;;;23.30;59.29;100933.05;1658938;85;21477;-81
2022/06/28 05:18:11;;;;;;;17.77;15.43;;;;;;;23.44;59.55;100928.17;1652169;85;20937;-81
2022/06/28 05:20:38;;;;;;;19.80;15.15;;;;;;;23.66;59.50;100924.55;1650432;85;21030;-81
2022/06/28 05:23:04;;;;;;;19.90;14.18;;;;;;;23.96;59.48;100928.72;1650997;85;21527;-81
2022/06/28 05:25:30;;;;;;;20.80;13.43;;;;;;;24.23;59.65;100920.26;1652541;85;21081;-81
2022/06/28 05:27:56;;;;;;;17.05;13.50;;;;;;;24.46;59.23;100933.70;1651666;85;21632;-81
2022/06/28 05:30:22;;;;;;;14.10;12.75;;;;;;;24.65;59.10;100942.06;1644029;85;21492;-81
2022/06/28 05:32:48;;;;;;;14.40;12.47;;;;;;;24.77;58.99;100937.23;1654026;85;21076;-81
2022/06/28 05:35:14;;;;;;;15.28;12.47;;;;;;;24.87;58.95;100946.22;1654951;84;21495;-81
2022/06/28 05:37:41;;;;;;;12.98;11.55;;;;;;;24.84;58.76;100942.47;1653786;85;21418;-81
2022/06/28 05:40:08;;;;;;;12.50;10.73;;;;;;;24.79;58.89;100945.91;1651324;85;20906;-80
2022/06/28 05:42:34;;;;;;;13.98;10.58;;;;;;;24.71;58.80;100962.79;1647344;84;21077;-81
2022/06/28 05:45:03;;;;;;;11.33;10.13;;;;;;;24.58;58.85;100973.84;1652925;85;21537;-81
2022/06/28 05:47:30;;;;;;;11.70;9.65;;;;;;;24.45;58.89;100981.77;1648138;84;21070;-81
2022/06/28 05:49:57;;;;;;;14.80;9.78;;;;;;;24.37;58.90;100991.56;1635258;85;20915;-81
2022/06/28 05:52:22;;;;;;;10.40;8.97;;;;;;;24.29;58.87;100993.88;1644688;84;20902;-81
2022/06/28 05:54:50;;;;;;;10.00;9.00;;;;;;;24.13;58.88;101003.74;1646478;84;21478;-79
2022/06/28 05:57:17;;;;;;;9.90;9.00;;;;;;;24.05;58.89;101037.75;1651629;85;21626;-81
2022/06/28 05:59:43;;;;;;;10.00;9.00;;;;;;;23.92;58.91;101072.03;1658811;84;21505;-80
2022/06/28 06:02:09;;;;;;;9.28;8.40;;;;;;;23.83;59.00;101084.55;1652420;84;21592;-81
2022/06/28 06:04:38;;;;;;;7.97;7.35;;;;;;;23.77;58.95;101083.61;1655525;84;21580;-81
2022/06/28 06:07:04;;;;;;;8.25;7.22;;;;;;;23.68;59.05;101070.52;1665224;84;21073;-82
2022/06/28 06:09:31;;;;;;;9.28;7.25;;;;;;;23.65;59.04;101048.73;1683235;84;21443;-81
2022/06/28 06:11:57;;;;;;;9.30;7.37;;;;;;;23.64;58.99;101018.84;1669311;84;21532;-81
2022/06/28 06:14:23;;;;;;;7.65;6.92;;;;;;;23.59;58.97;101014.33;1665798;84;21082;-81
2022/06/28 06:16:50;;;;;;;11.33;7.08;;;;;;;23.58;59.04;101007.36;1643525;85;21657;-81
2022/06/28 06:19:17;;;;;;;10.23;7.35;;;;;;;23.55;59.11;100993.51;1650096;85;21671;-81
2022/06/28 06:21:44;;;;;;;7.37;6.75;;;;;;;23.49;59.20;100980.19;1639914;85;21070;-81
2022/06/28 06:24:11;;;;;;;7.28;6.28;;;;;;;23.41;59.20;100946.37;1623114;86;21502;-81
2022/06/28 06:26:37;;;;;;;6.70;6.03;;;;;;;23.29;59.29;100921.27;1643990;85;20957;-81
2022/06/28 06:29:03;;;;;;;6.30;5.80;;;;;;;23.15;59.38;100899.72;1640974;85;21434;-81
2022/06/28 06:31:29;;;;;;;6.62;6.03;;;;;;;23.03;59.54;100889.94;1647946;85;20973;-81
2022/06/28 06:33:58;;;;;;;7.22;6.47;;;;;;;22.89;59.68;100868.40;1638761;85;20969;-81
2022/06/28 06:36:25;;;;;;;6.60;5.93;;;;;;;22.77;59.76;100848.07;1672519;84;20901;-81
2022/06/28 06:38:51;;;;;;;7.58;6.87;;;;;;;22.66;59.95;100832.92;1674670;84;21351;-81
2022/06/28 06:41:18;;;;;;;7.65;6.95;;;;;;;22.52;60.20;100817.13;1678381;83;20935;-81
2022/06/28 06:43:44;;;;;;;7.50;6.83;;;;;;;22.34;60.16;100824.41;1633501;84;21574;-81
2022/06/28 06:46:12;;;;;;;7.17;6.47;;;;;;;22.23;60.52;100838.70;1620534;85;21533;-81
2022/06/28 06:48:38;;;;;;;8.83;7.53;;;;;;;22.15;60.63;100853.28;1629677;84;21372;-80
2022/06/28 06:51:04;;;;;;;7.83;7.10;;;;;;;22.01;60.88;100859.34;1630825;85;21605;-81
2022/06/28 06:53:32;;;;;;;8.43;7.60;;;;;;;21.95;61.11;100868.45;1625992;85;21537;-81
2022/06/28 06:55:58;;;;;;;9.13;7.80;;;;;;;21.87;61.26;100886.48;1622926;84;21577;-82
2022/06/28 06:58:24;;;;;;;8.53;7.80;;;;;;;21.79;61.43;100908.02;1617864;85;20998;-82
2022/06/28 07:00:50;;;;;;;8.75;7.87;;;;;;;21.72;61.57;100919.84;1644572;84;21562;-82
2022/06/28 07:03:17;;;;;;;8.45;7.53;;;;;;;21.70;61.68;100961.20;1672086;84;20974;-82
2022/06/28 07:05:43;;;;;;;8.80;7.35;;;;;;;21.69;61.81;100990.23;1661407;84;21080;-82
2022/06/28 07:08:09;;;;;;;10.30;7.80;;;;;;;21.69;61.94;101012.61;1668090;84;21653;-82
2022/06/28 07:10:36;;;;;;;8.10;7.30;;;;;;;21.65;62.07;101017.19;1660705;84;21592;-82
2022/06/28 07:13:01;;;;;;;8.17;6.97;;;;;;;21.59;62.30;101010.95;1669227;84;20917;-82
2022/06/28 07:15:28;;;;;;;7.60;6.90;;;;;;;21.56;62.42;101026.06;1672035;84;21693;-82
2022/06/28 07:17:55;;;;;;;8.50;7.17;;;;;;;21.64;62.52;101053.66;1653125;84;21488;-82
2022/06/28 07:20:21;;;;;;;9.10;7.67;;;;;;;21.66;62.59;101068.05;1661082;84;21514;-82
2022/06/28 07:22:48;;;;;;;10.43;8.30;;;;;;;21.74;62.71;101081.17;1652666;83;21005;-82
2022/06/28 07:25:18;;;;;;;8.45;7.72;;;;;;;21.82;62.86;101090.44;1660085;85;21077;-83
2022/06/28 07:27:44;;;;;;;10.40;8.00;;;;;;;21.93;62.90;101106.00;1665013;84;21632;-82
2022/06/28 07:30:11;;;;;;;9.68;8.50;;;;;;;22.00;62.99;101121.84;1662117;84;21711;-82
2022/06/28 07:32:38;;;;;;;8.50;7.70;;;;;;;22.07;63.13;101127.19;1649493;85;21076;-82
2022/06/28 07:35:05;;;;;;;7.22;6.70;;;;;;;22.16;63.19;101151.31;1647514;85;21100;-82
2022/06/28 07:37:31;;;;;;;8.65;7.67;;;;;;;22.21;63.37;101158.50;1629267;85;21096;-82
2022/06/28 07:39:57;;;;;;;11.23;8.17;;;;;;;22.35;63.52;101164.69;1639983;85;21100;-82
2022/06/28 07:42:24;;;;;;;9.95;9.10;;;;;;;22.35;63.52;101164.69;1634691;85;21832;-82
2022/06/28 07:44:53;;;;;;;11.22;9.00;;;;;;;22.40;63.54;101167.89;1655379;84;21096;-82
2022/06/28 07:47:20;;;;;;;9.60;8.70;;;;;;;22.42;63.54;101176.56;1670889;84;21059;-82
2022/06/28 07:52:40;;;;;;;9.98;9.08;;;;;;;22.37;63.64;101183.88;1671500;84;21045;-82
2022/06/28 07:55:07;;;;;;;11.33;10.25;;;;;;;22.34;63.70;101189.34;1664157;84;21089;-81
2022/06/28 07:57:34;;;;;;;11.18;9.83;;;;;;;22.32;63.83;101195.64;1655086;84;21108;-81
2022/06/28 08:00:02;;;;;;;11.60;10.60;;;;;;;22.32;63.88;101193.84;1667308;84;21079;-81
2022/06/28 08:02:28;;;;;;;11.38;10.30;;;;;;;22.33;63.92;101190.28;1652876;85;21502;-81
2022/06/28 08:04:55;;;;;;;11.75;10.45;;;;;;;22.34;64.04;101192.45;1648168;85;20961;-81
2022/06/28 08:07:21;;;;;;;10.58;9.48;;;;;;;22.36;64.09;101206.36;1645744;86;20882;-79
2022/06/28 08:09:49;;;;;;;10.60;9.70;;;;;;;22.34;64.16;101201.20;1643414;85;20915;-80
2022/06/28 08:12:15;;;;;;;10.93;9.95;;;;;;;22.35;64.22;101207.33;1647554;85;25201;-80
2022/06/28 08:14:41;;;;;;;10.45;9.18;;;;;;;22.35;64.29;101209.49;1656419;85;20911;-80
2022/06/28 08:17:07;;;;;;;10.28;9.38;;;;;;;22.41;64.37;101219.66;1637475;85;20957;-81
2022/06/28 08:19:34;;;;;;;9.73;8.85;;;;;;;22.37;64.38;101210.23;1646590;86;20939;-80
2022/06/28 08:22:01;;;;;;;;;;;;;;;22.34;64.43;101210.89;1646413;85;20989;-80
2022/06/28 08:24:27;;;;;;;10.68;9.75;;;;;;;22.35;65.39;101215.23;1623200;85;20412;-80
2022/06/28 08:26:53;;;;;;;10.33;9.47;;;;;;;22.37;64.56;101215.96;1625523;85;21343;-80
2022/06/28 08:29:24;;;;;;;10.00;9.20;;;;;;;22.42;64.62;101220.51;1626506;87;20942;-80
2022/06/28 08:31:47;;;;;;;10.75;9.65;;;;;;;22.48;64.63;101212.27;1625166;86;20972;-80
2022/06/28 08:34:15;;;;;;;10.08;9.20;;;;;;;22.53;64.71;101214.64;1643520;85;20948;-80
2022/06/28 08:36:41;;;;;;;9.58;8.75;;;;;;;22.66;64.87;101219.61;1618517;87;21512;-80
2022/06/28 08:39:08;;;;;;;9.53;8.78;;;;;;;22.78;64.84;101229.02;1629046;87;20919;-80
2022/06/28 08:41:40;;;;;;;8.73;7.92;;;;;;;22.91;65.01;101226.50;1634582;85;20936;-81
2022/06/28 08:44:09;;;;;;;8.58;7.78;;;;;;;23.09;64.79;101237.31;1636362;85;20899;-80
2022/06/28 08:46:38;;;;;;;8.05;7.35;;;;;;;23.26;64.91;101231.52;1632581;85;20910;-80
2022/06/28 08:49:12;;;;;;;7.53;6.83;;;;;;;23.40;64.90;101227.56;1618785;85;20947;-80
2022/06/28 08:51:39;;;;;;;6.92;6.35;;;;;;;23.54;64.86;101226.30;1618644;85;20979;-80
2022/06/28 08:54:05;;;;;;;7.50;6.90;;;;;;;23.81;64.96;101219.81;1623419;86;20974;-80
2022/06/28 08:56:31;;;;;;;7.08;6.55;;;;;;;24.11;64.86;101226.28;1635343;85;20973;-80
2022/06/28 08:58:58;;;;;;;6.60;6.00;;;;;;;24.28;64.70;101222.13;1641849;85;20990;-80
2022/06/28 09:01:26;;;;;;;6.30;5.83;;;;;;;24.31;64.59;101221.94;1640670;85;21232;-80
2022/06/28 09:03:55;;;;;;;5.75;5.25;;;;;;;24.38;64.64;101219.28;1633671;85;20996;-80
2022/06/28 09:06:23;;;;;;;6.67;5.70;;;;;;;24.60;64.58;101222.69;1636071;85;20944;-81
2022/06/28 09:08:49;;;;;;;5.72;5.33;;;;;;;24.91;64.92;101199.52;1637351;85;21455;-80
2022/06/28 09:11:15;;;;;;;6.53;6.03;;;;;;;25.35;64.44;101211.93;1645480;85;20970;-80
2022/06/28 09:13:42;;;;;;;10.40;5.30;;;;;;;25.63;64.22;101208.67;1646601;84;20910;-83
2022/06/28 09:16:08;;;;;;;5.37;4.87;;;;;;;25.76;64.10;101203.41;1634662;85;20978;-83
2022/06/28 09:18:40;;;;;;;5.42;5.03;;;;;;;25.93;63.94;101205.72;1642619;85;20922;-84
2022/06/28 09:21:12;;;;;;;5.37;4.90;;;;;;;26.00;63.85;101207.80;1640359;85;20996;-83
2022/06/28 09:23:48;;;;;;;4.17;3.87;;;;;;;26.11;63.66;101206.19;1638453;85;21045;-83
2022/06/28 09:26:18;;;;;;;;;;;;;;;26.12;63.50;101203.42;1641403;85;21143;-83
2022/06/28 09:28:50;;;;;;;4.22;3.92;;;;;;;26.16;63.20;101212.00;1639019;85;20313;-83
2022/06/28 09:31:21;;;;;;;5.15;4.25;;;;;;;26.27;63.50;101212.08;1644371;85;21331;-83
2022/06/28 09:34:05;;;;;;;4.15;3.75;;;;;;;26.42;63.37;101217.64;1633936;85;21157;-83
2022/06/28 09:36:41;;;;;;;3.47;3.27;;;;;;;26.44;62.97;101218.84;1641867;85;21077;-83
2022/06/28 09:39:16;;;;;;;4.22;3.75;;;;;;;26.32;62.98;101221.43;1632616;85;21138;-80
2022/06/28 09:41:48;;;;;;;4.05;3.60;;;;;;;26.25;62.76;101221.95;1643417;85;21139;-83
2022/06/28 09:44:17;;;;;;;3.75;3.45;;;;;;;26.05;62.68;101232.65;1639308;85;21099;-83
2022/06/28 09:46:43;;;;;;;3.90;3.50;;;;;;;25.99;62.76;101227.81;1630997;85;21243;-83
2022/06/28 09:49:13;;;;;;;4.65;4.28;;;;;;;25.91;62.44;101234.98;1635229;85;21069;-84
2022/06/28 09:51:40;;;;;;;4.80;4.40;;;;;;;25.64;62.35;101240.39;1641262;85;21148;-84
2022/06/28 09:54:09;;;;;;;5.45;4.78;;;;;;;25.42;62.35;101244.61;1636113;85;21054;-84
2022/06/28 09:56:39;;;;;;;5.10;4.70;;;;;;;25.20;62.39;101246.06;1640925;85;21511;-84
2022/06/28 09:59:07;;;;;;;5.87;5.47;;;;;;;25.14;62.44;101246.47;1639866;85;21106;-84
2022/06/28 10:01:39;;;;;;;6.25;5.75;;;;;;;25.10;62.39;101248.95;1633855;85;20925;-83
2022/06/28 10:04:06;;;;;;;6.17;5.78;;;;;;;24.94;62.26;101252.23;1635285;86;20985;-83
2022/06/28 10:06:34;;;;;;;7.45;6.75;;;;;;;24.79;62.27;101251.43;1669256;84;20969;-84
2022/06/28 10:09:01;;;;;;;8.85;8.05;;;;;;;24.67;62.14;101244.30;1651377;84;20919;-84
2022/06/28 10:15:00;;;;;;;;;;;;;;;24.39;62.05;101227.59;1652478;84;20948;-84
2022/06/28 10:17:04;;;;;;;11.12;9.85;;;;;;;24.34;62.10;101268.48;1657266;84;20989;-84
2022/06/28 10:19:27;;;;;;;11.40;10.30;;;;;;;24.15;62.06;101267.89;1653794;84;20917;-84
2022/06/28 10:21:59;;;;;;;11.60;9.35;;;;;;;24.01;62.18;101271.39;1660898;84;20902;-84
2022/06/28 10:24:53;;;;;;;10.10;9.10;;;;;;;23.99;62.23;101270.16;1677371;84;20918;-84
2022/06/28 10:27:22;;;;;;;10.85;9.85;;;;;;;23.97;62.23;101266.77;1648659;84;20926;-84
2022/06/28 10:30:08;;;;;;;10.10;9.08;;;;;;;23.97;62.29;101276.02;1651493;84;20926;-84
2022/06/28 10:32:56;;;;;;;8.88;8.03;;;;;;;23.87;62.20;101270.09;1666067;84;20909;-84
2022/06/28 10:35:37;;;;;;;9.15;8.35;;;;;;;23.82;62.28;101277.45;1633722;84;20914;-84
2022/06/28 10:38:15;;;;;;;8.40;7.55;;;;;;;23.82;62.30;101280.94;1657392;84;20867;-83
2022/06/28 10:40:49;;;;;;;8.20;7.40;;;;;;;23.83;62.32;101273.39;1667199;84;20962;-83
2022/06/28 10:43:35;;;;;;;8.45;7.75;;;;;;;23.86;62.28;101285.56;1656049;84;20969;-83
2022/06/28 10:46:07;;;;;;;6.87;6.28;;;;;;;23.81;62.36;101280.56;1657250;84;20990;-83
2022/06/28 10:48:54;;;;;;;6.08;5.50;;;;;;;23.77;62.29;101280.37;1623524;85;21044;-83
2022/06/28 10:51:21;;;;;;;4.92;4.53;;;;;;;23.70;62.37;101290.45;1646868;84;20906;-83
2022/06/28 10:54:01;;;;;;;4.40;4.00;;;;;;;23.66;62.45;101282.80;1650546;84;20945;-83
2022/06/28 10:56:41;;;;;;;3.35;3.05;;;;;;;23.61;62.41;101287.50;1654390;84;20910;-83
2022/06/28 10:59:17;;;;;;;3.87;3.58;;;;;;;23.47;62.46;101288.29;1659660;84;21000;-83
2022/06/28 11:01:51;;;;;;;3.90;3.60;;;;;;;23.40;62.49;101293.55;1649782;85;20917;-83
2022/06/28 11:04:26;;;;;;;3.90;3.60;;;;;;;23.34;62.47;101296.58;1642535;85;20899;-83
2022/06/28 11:07:06;;;;;;;5.17;3.67;;;;;;;23.33;62.53;101289.59;1627545;85;21472;-83
2022/06/28 11:09:40;;;;;;;4.33;4.00;;;;;;;23.28;62.45;101285.91;1633925;85;20946;-83
2022/06/28 11:12:35;;;;;;;4.40;4.08;;;;;;;23.20;62.51;101288.61;1646388;85;20921;-83
2022/06/28 11:15:05;;;;;;;10.68;4.20;;;;;;;23.18;62.58;101295.77;1643982;85;20904;-83
2022/06/28 11:17:40;;;;;;;4.55;4.15;;;;;;;23.16;62.59;101304.23;1637641;84;20942;-83
2022/06/28 11:20:14;;;;;;;6.08;4.53;;;;;;;23.15;62.63;101312.62;1625225;84;20902;-83
2022/06/28 11:22:46;;;;;;;5.53;5.00;;;;;;;23.15;62.63;101314.41;1638334;85;20919;-83
2022/06/28 11:25:17;;;;;;;6.90;5.65;;;;;;;23.11;62.68;101315.05;1640601;85;20937;-83
2022/06/28 11:27:51;;;;;;;6.45;5.30;;;;;;;23.13;62.70;101314.50;1639417;86;20895;-84
2022/06/28 11:30:20;;;;;;;7.90;6.67;;;;;;;23.14;62.77;101311.39;1631210;85;20982;-84
2022/06/28 11:32:50;;;;;;;8.03;6.42;;;;;;;23.21;62.79;101316.70;1641861;85;20954;-84
2022/06/28 11:35:20;;;;;;;7.45;6.67;;;;;;;23.29;62.75;101325.02;1626584;85;20982;-84
2022/06/28 11:37:55;;;;;;;8.93;7.33;;;;;;;23.37;62.71;101314.87;1639702;85;20955;-84
2022/06/28 11:40:32;;;;;;;8.80;6.60;;;;;;;23.51;62.73;101314.03;1640110;85;20949;-82